createdAt,value
2018-12-29T00:01:17.560Z,7.90
2018-12-29T00:03:58.519Z,7.90
2018-12-29T00:06:39.539Z,7.90
2018-12-29T00:09:20.833Z,7.90
2018-12-29T00:12:02.094Z,7.90
2018-12-29T00:14:46.578Z,7.90
2018-12-29T00:17:27.989Z,7.90
2018-12-29T00:20:09.259Z,7.90
2018-12-29T00:22:50.340Z,7.90
2018-12-29T00:25:31.930Z,8.00
2018-12-29T00:28:13.444Z,7.90
2018-12-29T00:30:55.037Z,7.90
2018-12-29T00:33:36.320Z,8.00
2018-12-29T00:36:17.176Z,8.00
2018-12-29T00:38:58.643Z,8.00
2018-12-29T00:41:40.018Z,8.00
2018-12-29T00:44:21.179Z,8.00
2018-12-29T00:47:02.671Z,8.00
2018-12-29T00:49:44.180Z,8.00
2018-12-29T00:52:25.656Z,8.00
2018-12-29T00:55:07.342Z,8.00
2018-12-29T00:57:48.996Z,8.00
2018-12-29T01:00:30.678Z,8.00
2018-12-29T01:03:11.870Z,8.00
2018-12-29T01:05:52.950Z,8.10
2018-12-29T01:08:34.454Z,8.10
2018-12-29T01:11:18.607Z,8.10
2018-12-29T01:14:00.008Z,8.10
2018-12-29T01:16:41.505Z,8.10
2018-12-29T01:19:23.342Z,8.10
2018-12-29T01:22:04.951Z,8.10
2018-12-29T01:24:35.124Z,8.10
2018-12-29T01:27:05.094Z,8.10
2018-12-29T01:29:53.844Z,8.10
2018-12-29T01:32:24.049Z,8.10
2018-12-29T01:35:12.986Z,8.10
2018-12-29T01:37:54.399Z,8.10
2018-12-29T01:40:35.979Z,8.10
2018-12-29T01:43:17.236Z,8.10
2018-12-29T01:45:58.820Z,8.10
2018-12-29T01:48:40.042Z,8.10
2018-12-29T01:51:21.177Z,8.10
2018-12-29T01:54:02.212Z,8.10
2018-12-29T01:56:43.161Z,8.10
2018-12-29T01:59:24.722Z,8.20
2018-12-29T02:02:06.162Z,8.20
2018-12-29T02:04:47.759Z,8.20
2018-12-29T02:07:17.905Z,8.20
2018-12-29T02:10:06.725Z,8.20
2018-12-29T02:12:36.487Z,8.20
2018-12-29T02:15:25.249Z,8.20
2018-12-29T02:18:06.684Z,8.20
2018-12-29T02:20:47.897Z,8.20
2018-12-29T02:23:29.475Z,8.10
2018-12-29T02:26:10.857Z,8.10
2018-12-29T02:28:52.121Z,8.10
2018-12-29T02:31:33.598Z,8.10
2018-12-29T02:34:03.458Z,8.10
2018-12-29T02:36:52.155Z,8.10
2018-12-29T02:39:33.705Z,8.00
2018-12-29T02:42:14.723Z,8.00
2018-12-29T02:44:56.116Z,8.00
2018-12-29T02:47:36.949Z,8.00
2018-12-29T02:50:07.772Z,8.00
2018-12-29T02:52:56.375Z,8.00
2018-12-29T02:55:38.125Z,8.10
2018-12-29T02:58:19.430Z,8.10
2018-12-29T03:01:00.812Z,8.10
2018-12-29T03:03:42.470Z,8.10
2018-12-29T03:06:23.695Z,8.10
2018-12-29T03:09:05.555Z,8.10
2018-12-29T03:11:46.620Z,8.10
2018-12-29T03:14:28.368Z,8.10
2018-12-29T03:17:09.769Z,8.10
2018-12-29T03:19:51.351Z,8.10
2018-12-29T03:22:32.825Z,8.10
2018-12-29T03:25:14.058Z,8.10
2018-12-29T03:27:54.912Z,8.10
2018-12-29T03:30:36.372Z,8.10
2018-12-29T03:33:17.419Z,8.20
2018-12-29T03:35:59.036Z,8.10
2018-12-29T03:38:29.064Z,8.20
2018-12-29T03:41:19.152Z,8.20
2018-12-29T03:44:07.889Z,8.20
2018-12-29T03:46:56.589Z,8.20
2018-12-29T03:49:45.371Z,8.20
2018-12-29T03:52:26.861Z,8.20
2018-12-29T03:55:08.650Z,8.30
2018-12-29T03:57:50.194Z,8.30
2018-12-29T04:00:31.765Z,8.20
2018-12-29T04:03:12.946Z,8.30
2018-12-29T04:05:54.149Z,8.30
2018-12-29T04:08:35.586Z,8.30
2018-12-29T04:12:42.828Z,8.30
2018-12-29T04:14:46.689Z,8.40
2018-12-29T04:17:27.738Z,8.30
2018-12-29T04:20:08.957Z,8.30
2018-12-29T04:22:53.281Z,8.40
2018-12-29T04:25:34.779Z,8.40
2018-12-29T04:28:16.131Z,8.40
2018-12-29T04:34:16.793Z,8.50
2018-12-29T04:36:58.070Z,8.50
2018-12-29T04:39:39.743Z,8.50
2018-12-29T04:42:21.081Z,8.50
2018-12-29T04:44:50.740Z,8.50
2018-12-29T04:47:39.908Z,8.50
2018-12-29T04:50:20.797Z,8.50
2018-12-29T04:52:50.394Z,8.60
2018-12-29T04:55:31.629Z,8.60
2018-12-29T04:58:13.107Z,8.60
2018-12-29T05:00:54.437Z,8.60
2018-12-29T05:03:24.344Z,8.60
2018-12-29T05:09:26.549Z,8.60
2018-12-29T05:12:13.771Z,8.60
2018-12-29T05:15:02.610Z,8.60
2018-12-29T05:17:43.672Z,8.60
2018-12-29T05:20:24.875Z,8.60
2018-12-29T05:23:06.548Z,8.60
2018-12-29T05:25:47.968Z,8.70
2018-12-29T05:28:30.080Z,8.60
2018-12-29T05:31:12.130Z,8.60
2018-12-29T05:33:53.615Z,8.70
2018-12-29T05:36:35.327Z,8.60
2018-12-29T05:39:21.183Z,8.60
2018-12-29T05:42:02.702Z,8.60
2018-12-29T05:44:44.513Z,8.70
2018-12-29T05:47:26.302Z,8.70
2018-12-29T05:50:07.427Z,8.70
2018-12-29T05:52:48.278Z,8.70
2018-12-29T05:55:30.166Z,8.70
2018-12-29T05:58:11.818Z,8.70
2018-12-29T06:01:08.028Z,8.70
2018-12-29T06:03:37.576Z,8.80
2018-12-29T06:06:22.637Z,8.70
2018-12-29T06:22:40.384Z,8.80
2018-12-29T06:25:22.088Z,8.80
2018-12-29T06:28:02.957Z,8.80
2018-12-29T06:30:44.347Z,8.80
2018-12-29T06:33:24.973Z,8.80
2018-12-29T06:36:51.414Z,8.90
2018-12-29T06:39:32.184Z,8.90
2018-12-29T06:42:13.205Z,8.80
2018-12-29T06:44:53.895Z,8.90
2018-12-29T06:47:34.976Z,8.90
2018-12-29T06:57:43.465Z,8.90
2018-12-29T07:00:11.665Z,8.90
2018-12-29T07:02:40.039Z,8.90
2018-12-29T07:05:21.168Z,8.90
2018-12-29T07:08:04.275Z,8.90
2018-12-29T07:10:33.823Z,9.00
2018-12-29T07:13:24.441Z,9.00
2018-12-29T07:19:21.666Z,9.00
2018-12-29T07:22:20.297Z,9.00
2018-12-29T07:25:02.019Z,9.00
2018-12-29T07:27:45.528Z,9.00
2018-12-29T07:33:40.776Z,9.00
2018-12-29T07:36:46.971Z,9.10
2018-12-29T07:39:44.340Z,9.10
2018-12-29T07:43:03.711Z,9.10
2018-12-29T07:48:13.420Z,9.10
2018-12-29T08:13:38.042Z,9.10
2018-12-29T08:16:19.581Z,9.00
2018-12-29T08:19:00.762Z,9.10
2018-12-29T08:21:42.042Z,9.10
2018-12-29T08:24:23.782Z,9.10
2018-12-29T08:27:05.614Z,9.10
2018-12-29T08:29:47.206Z,9.20
2018-12-29T08:38:37.826Z,9.20
2018-12-29T08:41:18.642Z,9.20
2018-12-29T08:44:19.026Z,9.20
2018-12-29T08:46:48.206Z,9.20
2018-12-29T08:52:32.347Z,9.20
2018-12-29T08:55:02.027Z,9.20
2018-12-29T08:57:32.214Z,9.20
2018-12-29T09:00:20.768Z,9.20
2018-12-29T09:03:09.328Z,9.20
2018-12-29T09:05:50.508Z,9.20
2018-12-29T09:08:31.420Z,9.20
2018-12-29T09:11:16.245Z,9.20
2018-12-29T09:16:46.520Z,9.20
2018-12-29T09:19:28.136Z,9.20
2018-12-29T09:22:09.790Z,9.20
2018-12-29T09:24:51.511Z,9.20
2018-12-29T09:27:21.478Z,9.20
2018-12-29T09:29:51.483Z,9.20
2018-12-29T09:35:56.433Z,9.20
2018-12-29T09:51:14.771Z,9.30
2018-12-29T09:53:55.955Z,9.40
2018-12-29T09:56:37.141Z,9.40
2018-12-29T09:59:18.153Z,9.40
2018-12-29T10:02:24.395Z,9.40
2018-12-29T10:05:05.644Z,9.40
2018-12-29T10:07:35.919Z,9.50
2018-12-29T10:10:24.730Z,9.40
2018-12-29T10:13:06.166Z,9.40
2018-12-29T10:15:58.265Z,9.50
2018-12-29T10:18:40.012Z,9.50
2018-12-29T10:24:27.072Z,9.50
2018-12-29T10:26:56.688Z,9.50
2018-12-29T10:29:45.560Z,9.60
2018-12-29T10:32:34.290Z,9.60
2018-12-29T10:35:15.924Z,9.60
2018-12-29T10:37:57.553Z,9.70
2018-12-29T10:40:38.741Z,9.70
2018-12-29T10:43:19.918Z,9.80
2018-12-29T10:46:01.224Z,9.80
2018-12-29T10:48:43.145Z,9.80
2018-12-29T10:51:24.407Z,9.80
2018-12-29T10:54:05.787Z,9.90
2018-12-29T10:56:47.260Z,9.90
2018-12-29T10:59:28.855Z,9.80
2018-12-29T11:02:10.075Z,9.90
2018-12-29T11:04:51.242Z,9.90
2018-12-29T11:07:32.294Z,9.90
2018-12-29T11:10:13.879Z,9.80
2018-12-29T11:12:55.122Z,9.90
2018-12-29T11:15:38.442Z,9.90
2018-12-29T11:18:20.242Z,9.90
2018-12-29T11:20:49.915Z,9.90
2018-12-29T11:23:38.807Z,9.90
2018-12-29T11:29:08.154Z,9.80
2018-12-29T11:31:49.400Z,9.80
2018-12-29T11:34:32.566Z,9.80
2018-12-29T11:37:13.606Z,9.80
2018-12-29T11:39:57.834Z,9.80
2018-12-29T11:42:38.880Z,9.80
2018-12-29T11:45:19.887Z,9.90
2018-12-29T11:47:50.219Z,9.90
2018-12-29T11:51:10.937Z,10.00
2018-12-29T11:53:24.840Z,10.00
2018-12-29T11:56:08.355Z,10.00
2018-12-29T11:58:49.741Z,10.00
2018-12-29T12:01:31.053Z,10.00
2018-12-29T12:04:12.607Z,10.00
2018-12-29T12:06:55.991Z,10.00
2018-12-29T12:09:37.098Z,9.90
2018-12-29T12:12:18.396Z,9.80
2018-12-29T12:14:59.874Z,9.80
2018-12-29T12:17:41.628Z,9.80
2018-12-29T12:20:22.830Z,9.80
2018-12-29T12:23:04.720Z,9.80
2018-12-29T12:25:45.917Z,9.80
2018-12-29T12:28:30.103Z,9.80
2018-12-29T12:31:11.765Z,9.80
2018-12-29T12:33:41.838Z,9.80
2018-12-29T12:39:41.298Z,9.70
2018-12-29T12:42:25.076Z,9.70
2018-12-29T12:45:17.957Z,9.60
2018-12-29T12:53:57.166Z,9.60
2018-12-29T13:00:25.793Z,9.50
2018-12-29T13:02:49.399Z,9.50
2018-12-29T13:05:57.275Z,9.50
2018-12-29T13:10:57.952Z,9.40
2018-12-29T13:17:23.620Z,9.20
2018-12-29T13:19:54.594Z,9.20
2018-12-29T13:22:38.675Z,9.00
2018-12-29T13:28:18.085Z,9.00
2018-12-29T13:31:00.495Z,9.00
2018-12-29T13:42:22.506Z,8.60
2018-12-29T13:42:57.841Z,8.50
2018-12-29T13:46:20.961Z,8.50
2018-12-29T13:48:40.918Z,8.40
2018-12-29T13:51:21.854Z,8.40
2018-12-29T13:54:03.549Z,8.40
2018-12-29T13:56:33.407Z,8.40
2018-12-29T13:59:03.416Z,8.40
2018-12-29T14:02:30.128Z,8.50
2018-12-29T14:08:30.533Z,8.40
2018-12-29T14:11:11.909Z,8.40
2018-12-29T14:13:58.405Z,8.30
2018-12-29T14:16:39.509Z,8.40
2018-12-29T14:22:32.253Z,8.40
2018-12-29T14:25:13.464Z,8.40
2018-12-29T14:28:25.934Z,8.40
2018-12-29T14:31:14.782Z,8.40
2018-12-29T14:33:46.121Z,8.40
2018-12-29T14:39:31.878Z,8.40
2018-12-29T14:52:05.921Z,8.40
2018-12-29T14:53:50.831Z,8.40
2018-12-29T15:02:29.802Z,8.40
2018-12-29T15:05:14.616Z,8.40
2018-12-29T15:07:57.115Z,8.40
2018-12-29T15:10:49.794Z,8.40
2018-12-29T15:16:42.334Z,8.40
2018-12-29T15:19:30.919Z,8.40
2018-12-29T15:33:15.977Z,8.40
2018-12-29T15:35:42.540Z,8.40
2018-12-29T15:38:23.900Z,8.40
2018-12-29T15:41:37.247Z,8.50
2018-12-29T15:46:36.297Z,8.50
2018-12-29T15:54:05.721Z,8.50
2018-12-29T16:08:13.610Z,8.70
2018-12-29T16:10:59.712Z,8.80
2018-12-29T16:13:45.568Z,8.80
2018-12-29T16:29:05.997Z,8.90
2018-12-29T16:31:39.049Z,8.90
2018-12-29T16:34:19.997Z,8.90
2018-12-29T16:37:01.295Z,8.90
2018-12-29T16:39:42.951Z,9.00
2018-12-29T16:42:23.756Z,9.00
2018-12-29T16:45:05.282Z,9.00
2018-12-29T16:47:45.950Z,9.00
2018-12-29T16:50:27.556Z,9.00
2018-12-29T16:53:08.704Z,9.00
2018-12-29T16:55:49.738Z,9.00
2018-12-29T17:01:25.193Z,9.10
2018-12-29T17:04:05.567Z,9.10
2018-12-29T17:06:46.932Z,9.10
2018-12-29T17:09:28.632Z,9.10
2018-12-29T17:12:09.691Z,9.10
2018-12-29T17:14:50.933Z,9.10
2018-12-29T17:17:32.496Z,9.20
2018-12-29T17:20:15.485Z,9.20
2018-12-29T17:22:56.807Z,9.20
2018-12-29T17:25:45.851Z,9.20
2018-12-29T17:31:11.734Z,9.20
2018-12-29T17:34:00.274Z,9.20
2018-12-29T17:36:42.228Z,9.20
2018-12-29T17:39:23.822Z,9.20
2018-12-29T17:42:05.356Z,9.20
2018-12-29T17:44:46.803Z,9.20
2018-12-29T17:47:28.113Z,9.20
2018-12-29T17:50:08.890Z,9.10
2018-12-29T17:52:53.389Z,9.10
2018-12-29T17:55:34.592Z,9.10
2018-12-29T17:58:16.034Z,9.10
2018-12-29T18:00:56.920Z,9.00
2018-12-29T18:06:46.606Z,9.00
2018-12-29T18:12:35.397Z,9.00
2018-12-29T18:15:46.597Z,8.90
2018-12-29T18:18:28.217Z,8.80
2018-12-29T18:21:09.566Z,8.70
2018-12-29T18:23:51.031Z,8.50
2018-12-29T18:26:20.752Z,8.50
2018-12-29T18:29:09.312Z,8.40
2018-12-29T18:31:57.850Z,8.30
2018-12-29T18:34:39.471Z,8.20
2018-12-29T18:37:20.267Z,8.10
2018-12-29T18:40:01.592Z,8.10
2018-12-29T18:42:42.568Z,8.10
2018-12-29T18:45:24.215Z,8.00
2018-12-29T18:48:05.504Z,8.00
2018-12-29T18:50:46.752Z,8.00
2018-12-29T18:53:28.166Z,7.90
2018-12-29T18:56:09.273Z,7.90
2018-12-29T18:58:50.571Z,7.90
2018-12-29T19:01:31.438Z,7.90
2018-12-29T19:06:56.231Z,7.90
2018-12-29T19:09:37.389Z,7.90
2018-12-29T19:12:18.066Z,7.90
2018-12-29T19:14:59.625Z,7.90
2018-12-29T19:17:41.213Z,7.90
2018-12-29T19:20:22.259Z,7.90
2018-12-29T19:23:01.830Z,7.80
2018-12-29T19:25:50.434Z,7.70
2018-12-29T19:28:38.487Z,7.80
2018-12-29T19:31:19.386Z,7.80
2018-12-29T19:34:00.278Z,7.80
2018-12-29T19:36:41.724Z,7.80
2018-12-29T19:39:23.289Z,7.70
2018-12-29T19:42:04.735Z,7.70
2018-12-29T19:44:46.213Z,7.70
2018-12-29T19:47:28.047Z,7.80
2018-12-29T19:50:10.603Z,7.80
2018-12-29T19:52:51.939Z,7.80
2018-12-29T19:55:33.162Z,7.70
2018-12-29T19:58:13.932Z,7.70
2018-12-29T20:00:55.202Z,7.80
2018-12-29T20:03:36.691Z,7.70
2018-12-29T20:06:18.007Z,7.70
2018-12-29T20:08:59.689Z,7.70
2018-12-29T20:11:41.079Z,7.80
2018-12-29T20:17:41.330Z,7.70
2018-12-29T20:20:22.814Z,7.80
2018-12-29T20:23:04.623Z,7.80
2018-12-29T20:25:45.986Z,7.70
2018-12-29T20:28:27.036Z,7.80
2018-12-29T20:31:08.657Z,7.80
2018-12-29T20:33:50.114Z,7.80
2018-12-29T20:36:19.650Z,7.80
2018-12-29T20:39:08.248Z,7.80
2018-12-29T20:41:56.834Z,7.80
2018-12-29T20:44:26.401Z,7.80
2018-12-29T20:47:14.977Z,7.80
2018-12-29T20:49:56.022Z,7.80
2018-12-29T20:52:37.536Z,7.80
2018-12-29T20:55:07.545Z,7.80
2018-12-29T20:57:56.103Z,7.80
2018-12-29T21:00:36.927Z,7.80
2018-12-29T21:03:36.824Z,7.80
2018-12-29T21:06:18.059Z,7.80
2018-12-29T21:08:59.524Z,7.80
2018-12-29T21:11:40.747Z,7.80
2018-12-29T21:14:22.032Z,7.80
2018-12-29T21:16:51.551Z,7.80
2018-12-29T21:19:40.182Z,7.80
2018-12-29T21:22:28.771Z,7.80
2018-12-29T21:27:51.860Z,7.90
2018-12-29T21:30:33.265Z,7.80
2018-12-29T21:33:14.553Z,7.90
2018-12-29T21:35:55.972Z,7.80
2018-12-29T21:38:37.607Z,7.80
2018-12-29T21:41:18.371Z,7.90
2018-12-29T21:44:00.218Z,7.80
2018-12-29T21:46:41.777Z,7.80
2018-12-29T21:49:21.434Z,7.90
2018-12-29T21:52:10.124Z,7.90
2018-12-29T21:54:50.983Z,7.90
2018-12-29T21:57:32.023Z,7.90
2018-12-29T22:00:12.753Z,7.90
2018-12-29T22:02:54.257Z,7.90
2018-12-29T22:05:24.205Z,7.90
2018-12-29T22:08:12.824Z,7.90
2018-12-29T22:10:54.000Z,7.80
2018-12-29T22:13:35.382Z,7.90
2018-12-29T22:16:16.895Z,7.90
2018-12-29T22:18:46.430Z,7.90
2018-12-29T22:21:28.188Z,7.90
2018-12-29T22:24:08.863Z,7.80
2018-12-29T22:26:49.680Z,7.80
2018-12-29T22:29:31.441Z,7.90
2018-12-29T22:32:12.231Z,7.80
2018-12-29T22:34:53.817Z,7.80
2018-12-29T22:37:33.560Z,7.80
2018-12-29T22:40:03.038Z,7.80
2018-12-29T22:42:51.619Z,7.80
2018-12-29T22:45:33.139Z,7.80
2018-12-29T22:48:13.947Z,7.80
2018-12-29T22:50:55.271Z,7.80
2018-12-29T22:53:36.900Z,7.80
2018-12-29T22:56:18.099Z,7.80
2018-12-29T23:01:57.763Z,7.70
2018-12-29T23:04:39.238Z,7.70
2018-12-29T23:07:20.796Z,7.70
2018-12-29T23:10:03.201Z,7.70
2018-12-29T23:12:44.693Z,7.70
2018-12-29T23:15:25.806Z,7.70
2018-12-29T23:18:07.194Z,7.70
2018-12-29T23:20:37.012Z,7.70
2018-12-29T23:23:25.599Z,7.70
2018-12-29T23:26:14.355Z,7.60
2018-12-29T23:28:55.888Z,7.70
2018-12-29T23:31:36.825Z,7.70
2018-12-29T23:34:17.771Z,7.70
2018-12-29T23:36:59.256Z,7.70
2018-12-29T23:39:40.009Z,7.70
2018-12-29T23:42:21.245Z,7.70
2018-12-29T23:45:02.020Z,7.70
2018-12-29T23:47:43.877Z,7.70
2018-12-29T23:50:25.613Z,7.70
2018-12-29T23:53:06.959Z,7.70
2018-12-29T23:55:48.549Z,7.70
2018-12-29T23:58:18.061Z,7.60
